Seattle, WA (98115)

12:19 PM PDT on August 30, 2015 (GMT -0700)
Wedgwood | | Change Station
CLOSE
Current Station
Personal Weather Station
Location: Seattle, WA
Elevation: 367 ft
Nearby Weather Stations

Elev 367 ft 47.68 °N, 122.29 °W | Updated 11 minutes ago

Overcast
Overcast
66.1 °F
Feels Like 66.1 °F
N
9.4
Wind Variable Wind from East

Today
High -- | Low -- °F
--% Chance of Precip.
Yesterday
High -- | Low -- °F
Precip. -- in
6:24 AM 7:53 PM
Full, 98% visible
Pressure 29.94 in
Visibility 9.0 miles
Clouds Few 3800 ft
Mostly Cloudy 6000 ft
Dew Point 58 °F
Humidity 76%
Rainfall 0.31 in
Snow Depth Not available.
UV 4 out of 12
Pollen .50 out of 12
Air Quality Not available.
Flu Activity Not available.
METAR KBFI 301853Z VRB06KT 9SM -RA FEW038 BKN060 18/13 A2993 RMK AO2 RAB10 SLP136 P0001 T01780128 $
Pressure 29.94 in
Visibility 9.0 miles
Clouds Few 3800 ft
Mostly Cloudy 6000 ft
Dew Point 58 °F
Humidity 76%
Rainfall 0.31 in
Snow Depth Not available.
UV 4 out of 12
Pollen .50 out of 12
Air Quality Not available.
Flu Activity Not available.
METAR KBFI 301853Z VRB06KT 9SM -RA FEW038 BKN060 18/13 A2993 RMK AO2 RAB10 SLP136 P0001 T01780128 $

10-Day Weather Forecast

×

Almanac

Astronomy

Aug. 30, 2015 Rise Set
Actual Time
Civil Twilight
Nautical Twilight
Astronomical Twilight
Moon
Length of Visible Light
Length of Day
Tomorrow will be .
, % of the Moon is Illuminated

Today's Extremes

State Highs State Lows

Community

WunderPhotos

Upload Photos

1,851,036 photos uploaded!

WunderBlogs® & News

Nearby

Air Quality

  Air Quality AQ Index Pollutant
Not available.

Snow Depth

Station Depth Elevation

Earthquake Activity

City Distance Mag. Time & Date
Minimum magnitude displayed is 2.5.

Coastal Water Temperatures

Place Temperature

Stations

Nearby Weather Stations

Station Location Temp. Windchill Dew Point Humidity Wind Precip. Elev Updated Type